Deva — A8OK3 — position and weather

sailwx.info

Track history (hours):
 
Tides and Currents Weather Stations Pressure Air Temp Water Temp Dewpoint Dewpoint Depression Visibility Wind Speed Wind Dir Waves Ship Positions

Deva

Last reported at 2015-May-25 19:26 UTC. Time now 2015-May-28 18:06 UTC.
Position N 01°15' E 104°01'.

Length 259 m; draft 11.3 m.

Type: Ship (hazmat cat A). MMSI: 636013644.

Date/timePositionNaut miles runAvg speedWind from/ knotsBaromVisibWave heightAir tempDewpointWater temp
2015-May-25 19:26N 01°15' E 104°01'1213.2
2015-May-25 18:31N 01°12' E 103°49'5 5.7
2015-May-25 17:33N 01°16' E 103°47'0 0.1
2015-May-25 16:33N 01°17' E 103°47'0 0.0
2015-May-25 15:30N 01°17' E 103°47'0 0.0
2015-May-25 14:30N 01°17' E 103°47'0 0.0
2015-May-25 13:33N 01°17' E 103°47'0 0.1
2015-May-25 12:33N 01°17' E 103°47'0 0.1
2015-May-25 11:29N 01°17' E 103°47'0 0.0
2015-May-25 10:32N 01°17' E 103°47'0 0.0
2015-May-25 09:32N 01°17' E 103°47'0 0.0
2015-May-25 08:32N 01°17' E 103°47'0 0.0
2015-May-25 07:32N 01°17' E 103°47'0 0.0
2015-May-25 06:29N 01°17' E 103°47'0 0.0
2015-May-25 05:32N 01°17' E 103°47'0 0.0
2015-May-25 04:29N 01°17' E 103°47'0 0.1
2015-May-25 03:33N 01°17' E 103°47'  
2015-May-20 06:33N 01°52' E 102°25'1413.1
2015-May-20 05:31N 01°46' E 102°38'1212.2
2015-May-20 04:33N 01°41' E 102°48'6011.4
2015-May-19 23:18N 01°14' E 103°42'5 6.7
2015-May-19 22:32N 01°17' E 103°46'0 0.0
2015-May-19 21:29N 01°17' E 103°46'0 0.0
2015-May-19 20:32N 01°17' E 103°46'0 0.0
2015-May-19 19:20N 01°17' E 103°46'0 0.0
2015-May-19 18:14N 01°17' E 103°46'0 0.0
2015-May-19 17:32N 01°17' E 103°46'0 0.0
2015-May-19 16:32N 01°17' E 103°46'0 0.0
2015-May-19 15:29N 01°17' E 103°46'0 0.0
2015-May-19 14:32N 01°17' E 103°46'0 0.0
2015-May-19 13:29N 01°17' E 103°46'0 0.0
2015-May-19 12:32N 01°17' E 103°46'0 0.0
2015-May-19 11:32N 01°17' E 103°46'0 0.0
2015-May-19 10:29N 01°17' E 103°46'0 0.0
2015-May-19 09:32N 01°17' E 103°46'0 0.0
2015-May-19 08:29N 01°17' E 103°46'0 0.0
2015-May-19 07:32N 01°17' E 103°46'0 0.0
2015-May-19 06:26N 01°17' E 103°46'1 0.8
2015-May-19 05:30N 01°17' E 103°45'9 7.2
2015-May-19 04:17N 01°13' E 103°52'5 6.4
2015-May-19 03:30N 01°14' E 103°57'8 8.6
2015-May-19 02:33N 01°16' E 104°05'9 8.9
2015-May-19 01:33N 01°18' E 104°14'  
Track history (hours):
 
Tides and Currents Weather Stations Pressure Air Temp Water Temp Dewpoint Dewpoint Depression Visibility Wind Speed Wind Dir Waves Ship Positions

Deva

Last reported at 2015-May-25 19:26 UTC. Time now 2015-May-28 18:06 UTC.
Position N 01°15' E 104°01'.

Length 259 m; draft 11.3 m.

Type: Ship (hazmat cat A). MMSI: 636013644.

Date/timePositionNaut miles runAvg speedWind from/ knotsBaromVisibWave heightAir tempDewpointWater temp
2015-May-25 19:26N 01°15' E 104°01'1213.2
2015-May-25 18:31N 01°12' E 103°49'5 5.7
2015-May-25 17:33N 01°16' E 103°47'0 0.1
2015-May-25 16:33N 01°17' E 103°47'0 0.0
2015-May-25 15:30N 01°17' E 103°47'0 0.0
2015-May-25 14:30N 01°17' E 103°47'0 0.0
2015-May-25 13:33N 01°17' E 103°47'0 0.1
2015-May-25 12:33N 01°17' E 103°47'0 0.1
2015-May-25 11:29N 01°17' E 103°47'0 0.0
2015-May-25 10:32N 01°17' E 103°47'0 0.0
2015-May-25 09:32N 01°17' E 103°47'0 0.0
2015-May-25 08:32N 01°17' E 103°47'0 0.0
2015-May-25 07:32N 01°17' E 103°47'0 0.0
2015-May-25 06:29N 01°17' E 103°47'0 0.0
2015-May-25 05:32N 01°17' E 103°47'0 0.0
2015-May-25 04:29N 01°17' E 103°47'0 0.1
2015-May-25 03:33N 01°17' E 103°47'  
2015-May-20 06:33N 01°52' E 102°25'1413.1
2015-May-20 05:31N 01°46' E 102°38'1212.2
2015-May-20 04:33N 01°41' E 102°48'6011.4
2015-May-19 23:18N 01°14' E 103°42'5 6.7
2015-May-19 22:32N 01°17' E 103°46'0 0.0
2015-May-19 21:29N 01°17' E 103°46'0 0.0
2015-May-19 20:32N 01°17' E 103°46'0 0.0
2015-May-19 19:20N 01°17' E 103°46'0 0.0
2015-May-19 18:14N 01°17' E 103°46'0 0.0
2015-May-19 17:32N 01°17' E 103°46'0 0.0
2015-May-19 16:32N 01°17' E 103°46'0 0.0
2015-May-19 15:29N 01°17' E 103°46'0 0.0
2015-May-19 14:32N 01°17' E 103°46'0 0.0
2015-May-19 13:29N 01°17' E 103°46'0 0.0
2015-May-19 12:32N 01°17' E 103°46'0 0.0
2015-May-19 11:32N 01°17' E 103°46'0 0.0
2015-May-19 10:29N 01°17' E 103°46'0 0.0
2015-May-19 09:32N 01°17' E 103°46'0 0.0
2015-May-19 08:29N 01°17' E 103°46'0 0.0
2015-May-19 07:32N 01°17' E 103°46'0 0.0
2015-May-19 06:26N 01°17' E 103°46'1 0.8
2015-May-19 05:30N 01°17' E 103°45'9 7.2
2015-May-19 04:17N 01°13' E 103°52'5 6.4
2015-May-19 03:30N 01°14' E 103°57'8 8.6
2015-May-19 02:33N 01°16' E 104°05'9 8.9
2015-May-19 01:33N 01°18' E 104°14'  

Dump ship's entire track history